Time;durP1;ratioP1;P1;durP2;ratioP2;P2;SDS_P1;SDS_P2;PMS_P1;PMS_P2;Temp;Humidity;BMP_temperature;BMP_pressure;BME280_temperature;BME280_humidity;BME280_pressure;Samples;Min_cycle;Max_cycle;Signal;HPM_P1;HPM_P2
2022/11/27 00:01:41;;;;;;;26.83;6.75;;;8.70;99.90;;;;;;5085578;28;20024;-69
2022/11/27 00:04:09;;;;;;;17.00;6.18;;;8.60;99.90;;;;;;5086239;28;20031;-68
2022/11/27 00:06:35;;;;;;;20.92;6.70;;;8.50;99.90;;;;;;5086181;28;20383;-73
2022/11/27 00:09:04;;;;;;;23.13;7.32;;;8.50;99.90;;;;;;5083366;28;20460;-72
2022/11/27 00:11:31;;;;;;;19.20;6.32;;;8.40;99.90;;;;;;5086250;28;20032;-70
2022/11/27 00:13:57;;;;;;;22.42;6.43;;;8.40;99.90;;;;;;5086876;28;20032;-70
2022/11/27 00:16:23;;;;;;;15.00;6.28;;;8.40;99.90;;;;;;5085631;28;20032;-72
2022/11/27 00:18:49;;;;;;;22.45;7.25;;;8.40;99.90;;;;;;5086685;28;20028;-72
2022/11/27 00:21:27;;;;;;;23.42;7.22;;;8.30;99.90;;;;;;5085061;28;20032;-69
2022/11/27 00:23:54;;;;;;;22.27;7.45;;;8.30;99.90;;;;;;5086533;28;20073;-70
2022/11/27 00:26:21;;;;;;;23.33;7.88;;;8.30;99.90;;;;;;5086060;28;20429;-73
2022/11/27 00:28:47;;;;;;;20.35;6.07;;;8.30;99.90;;;;;;5087459;28;20068;-73
2022/11/27 00:31:18;;;;;;;18.52;4.57;;;8.30;99.90;;;;;;5083528;28;20049;-74
2022/11/27 00:33:44;;;;;;;24.05;6.93;;;8.20;99.90;;;;;;5085666;28;20028;-72
2022/11/27 00:36:11;;;;;;;23.92;7.63;;;8.20;99.90;;;;;;5085580;28;20671;-71
2022/11/27 00:38:39;;;;;;;22.52;6.63;;;8.10;99.90;;;;;;5085313;28;20035;-68
2022/11/27 00:41:10;;;;;;;20.20;6.13;;;8.00;99.90;;;;;;5084879;28;20177;-71
2022/11/27 00:43:37;;;;;;;18.30;5.65;;;8.00;99.90;;;;;;5089355;28;20325;-70
2022/11/27 00:46:03;;;;;;;22.17;6.35;;;8.00;99.90;;;;;;5090948;28;20059;-67
2022/11/27 00:48:29;;;;;;;18.70;5.70;;;8.00;99.90;;;;;;5089273;28;20109;-70
2022/11/27 00:51:02;;;;;;;21.10;6.25;;;8.00;99.90;;;;;;5086241;28;20047;-73
2022/11/27 00:53:28;;;;;;;15.30;4.65;;;8.00;99.90;;;;;;5084267;28;20465;-71
2022/11/27 00:55:55;;;;;;;21.25;5.22;;;7.90;99.90;;;;;;5089698;28;20028;-73
2022/11/27 00:58:21;;;;;;;17.95;5.88;;;7.90;99.90;;;;;;5087036;28;20024;-73
2022/11/27 01:00:57;;;;;;;20.55;6.18;;;7.90;99.90;;;;;;5093934;28;20051;-71
2022/11/27 01:03:23;;;;;;;18.98;6.78;;;7.90;99.90;;;;;;5088774;28;20016;-72
2022/11/27 01:05:49;;;;;;;21.70;6.13;;;7.80;99.90;;;;;;5094132;28;20088;-73
2022/11/27 01:08:15;;;;;;;23.45;6.50;;;7.80;99.90;;;;;;5094589;28;20023;-72
2022/11/27 01:10:49;;;;;;;23.52;6.82;;;7.70;99.90;;;;;;5090622;28;20032;-68
2022/11/27 01:13:15;;;;;;;17.38;5.78;;;7.70;99.90;;;;;;5093562;28;20480;-69
2022/11/27 01:15:40;;;;;;;13.23;5.05;;;7.70;99.90;;;;;;5095869;28;20026;-70
2022/11/27 01:18:06;;;;;;;17.00;5.68;;;7.60;99.90;;;;;;5086369;28;20326;-70
2022/11/27 01:20:31;;;;;;;19.45;6.05;;;7.60;99.90;;;;;;5094450;28;20097;-68
2022/11/27 01:22:57;;;;;;;21.95;4.95;;;7.40;99.90;;;;;;5092247;28;20468;-72
2022/11/27 01:25:22;;;;;;;20.58;5.82;;;7.30;99.90;;;;;;5092953;28;20024;-69
2022/11/27 01:27:48;;;;;;;19.55;6.78;;;7.30;99.90;;;;;;5091921;28;20113;-68
2022/11/27 01:30:14;;;;;;;19.90;5.65;;;7.30;99.90;;;;;;5091289;28;20032;-67
2022/11/27 01:32:39;;;;;;;20.67;5.53;;;7.30;99.90;;;;;;5094033;28;20040;-68
2022/11/27 01:35:05;;;;;;;24.00;6.55;;;7.30;99.90;;;;;;5094739;28;20035;-67
2022/11/27 01:37:31;;;;;;;20.92;7.40;;;7.40;99.90;;;;;;5094434;28;20103;-71
2022/11/27 01:39:56;;;;;;;22.17;8.65;;;7.50;99.90;;;;;;5094327;28;20128;-69
2022/11/27 01:42:22;;;;;;;20.50;7.07;;;7.40;99.90;;;;;;5086595;28;20020;-70
2022/11/27 01:44:51;;;;;;;23.77;7.75;;;7.40;99.90;;;;;;5093311;28;22536;-71
2022/11/27 01:47:28;;;;;;;19.10;8.20;;;7.40;99.90;;;;;;5093273;28;20061;-70
2022/11/27 01:49:59;;;;;;;22.02;8.00;;;7.30;99.90;;;;;;5090409;28;20028;-72
2022/11/27 01:52:33;;;;;;;20.17;7.22;;;7.30;99.90;;;;;;5091984;28;20032;-69
2022/11/27 01:55:28;;;;;;;25.40;7.18;;;7.30;99.90;;;;;;5086970;28;20100;-70
2022/11/27 01:57:58;;;;;;;23.50;7.78;;;7.30;99.90;;;;;;5075006;28;20484;-68
2022/11/27 02:00:25;;;;;;;23.35;7.78;;;7.30;99.90;;;;;;5087392;28;20051;-71
2022/11/27 02:02:51;;;;;;;19.17;7.43;;;7.30;99.90;;;;;;5090050;28;20526;-69
2022/11/27 02:05:21;;;;;;;21.85;7.53;;;7.20;99.90;;;;;;5093758;28;20028;-69
2022/11/27 02:07:47;;;;;;;22.67;6.72;;;7.00;99.90;;;;;;5086710;28;20043;-70
2022/11/27 02:10:14;;;;;;;17.88;7.30;;;7.10;99.90;;;;;;5092337;28;20376;-73
2022/11/27 02:13:00;;;;;;;24.65;8.52;;;6.90;99.90;;;;;;5093658;28;20032;-70
2022/11/27 02:15:48;;;;;;;27.33;7.97;;;6.90;99.90;;;;;;5092793;28;20031;-72
2022/11/27 02:18:20;;;;;;;20.65;7.88;;;7.00;99.90;;;;;;5091916;28;20042;-71
2022/11/27 02:21:25;;;;;;;25.55;7.95;;;7.00;99.90;;;;;;5092776;28;20047;-69
2022/11/27 02:24:05;;;;;;;18.88;7.65;;;7.00;99.90;;;;;;5091448;28;20028;-70
2022/11/27 02:26:40;;;;;;;22.60;8.10;;;7.00;99.90;;;;;;5091140;28;20035;-69
2022/11/27 02:29:07;;;;;;;25.15;8.27;;;6.90;99.90;;;;;;5088511;28;20028;-71
2022/11/27 02:31:38;;;;;;;19.95;9.70;;;7.00;99.90;;;;;;5090843;28;20024;-71
2022/11/27 02:34:13;;;;;;;27.10;8.67;;;7.00;99.90;;;;;;5089555;28;20116;-67
2022/11/27 02:36:42;;;;;;;21.80;8.18;;;7.10;99.90;;;;;;5089703;28;20024;-72
2022/11/27 02:39:14;;;;;;;21.13;7.25;;;7.00;99.90;;;;;;5091239;28;20415;-70
2022/11/27 02:41:46;;;;;;;19.17;7.25;;;7.00;99.90;;;;;;5103006;28;20028;-68
2022/11/27 02:44:12;;;;;;;24.20;7.82;;;7.10;99.90;;;;;;5089708;28;20039;-69
2022/11/27 02:46:40;;;;;;;19.13;6.97;;;7.10;99.90;;;;;;5088308;28;20497;-71
2022/11/27 02:49:12;;;;;;;18.98;6.78;;;7.00;99.90;;;;;;5092783;28;20027;-68
2022/11/27 02:51:44;;;;;;;19.02;6.80;;;7.10;99.90;;;;;;5089482;28;20043;-71
2022/11/27 02:54:17;;;;;;;20.30;6.35;;;7.00;99.90;;;;;;5090256;28;20028;-69
2022/11/27 02:56:43;;;;;;;20.58;6.18;;;7.10;99.90;;;;;;5091540;28;20581;-69
2022/11/27 02:59:12;;;;;;;11.20;5.00;;;7.20;99.90;;;;;;5091999;28;20016;-70
2022/11/27 03:01:47;;;;;;;12.90;5.10;;;7.20;99.90;;;;;;5092010;28;20116;-69
2022/11/27 03:04:19;;;;;;;14.80;5.68;;;7.30;99.90;;;;;;5088674;28;20049;-68
2022/11/27 03:06:51;;;;;;;14.75;6.07;;;7.30;99.90;;;;;;5088302;28;20050;-69
2022/11/27 03:09:33;;;;;;;14.38;5.22;;;7.30;99.90;;;;;;5088473;28;20379;-69
2022/11/27 03:11:59;;;;;;;11.87;4.80;;;7.40;99.90;;;;;;5084816;28;20024;-68
2022/11/27 03:14:24;;;;;;;12.40;5.38;;;7.30;99.90;;;;;;5087376;28;20531;-68
2022/11/27 03:17:10;;;;;;;13.40;4.60;;;7.40;99.90;;;;;;5089436;28;20085;-68
2022/11/27 03:19:53;;;;;;;11.07;5.38;;;7.40;99.90;;;;;;5088318;28;20119;-69
2022/11/27 03:22:19;;;;;;;10.20;4.65;;;7.40;99.90;;;;;;5088190;28;20028;-69
2022/11/27 03:24:45;;;;;;;10.60;4.63;;;7.40;99.90;;;;;;5085450;28;20054;-68
2022/11/27 03:27:18;;;;;;;11.10;5.00;;;7.40;99.90;;;;;;5089461;28;20031;-68
2022/11/27 03:29:48;;;;;;;13.07;4.97;;;7.40;99.90;;;;;;5087850;28;20020;-71
2022/11/27 03:32:14;;;;;;;8.75;4.57;;;7.30;99.90;;;;;;5088653;28;20460;-68
2022/11/27 03:34:40;;;;;;;11.65;4.90;;;7.40;99.90;;;;;;5091933;28;20040;-71
2022/11/27 03:37:06;;;;;;;13.43;5.50;;;7.40;99.90;;;;;;5088021;28;20364;-69
2022/11/27 03:39:32;;;;;;;9.88;3.97;;;7.40;99.90;;;;;;5086899;28;20074;-71
2022/11/27 03:42:28;;;;;;;11.80;4.85;;;7.40;99.90;;;;;;5086102;28;20028;-73
2022/11/27 03:45:15;;;;;;;15.77;5.20;;;7.40;99.90;;;;;;5086729;28;20124;-72
2022/11/27 03:47:47;;;;;;;11.25;4.43;;;7.50;99.90;;;;;;5086164;28;20112;-71
2022/11/27 03:50:26;;;;;;;10.50;4.72;;;7.50;99.90;;;;;;5088113;28;20027;-72
2022/11/27 03:52:59;;;;;;;15.73;5.07;;;7.40;99.90;;;;;;5087329;28;20012;-74
2022/11/27 03:55:50;;;;;;;14.05;5.82;;;7.40;99.90;;;;;;5082420;28;20070;-72
2022/11/27 03:58:23;;;;;;;12.60;5.50;;;7.30;99.90;;;;;;5103989;28;20067;-69
2022/11/27 04:00:51;;;;;;;16.60;5.68;;;7.30;99.90;;;;;;5082473;28;20036;-70
2022/11/27 04:03:23;;;;;;;23.90;6.20;;;7.30;99.90;;;;;;5089138;28;20095;-69
2022/11/27 04:05:49;;;;;;;;;;;7.20;99.90;;;;;;5091068;28;20059;-66
2022/11/27 04:08:15;;;;;;;20.23;6.30;;;7.30;99.90;;;;;;5085895;28;20375;-70
2022/11/27 04:10:40;;;;;;;18.17;6.15;;;7.20;99.90;;;;;;5089181;28;20035;-68
2022/11/27 04:13:06;;;;;;;17.58;6.45;;;7.30;99.90;;;;;;5091772;28;20071;-69
2022/11/27 04:15:31;;;;;;;12.50;6.13;;;7.30;99.90;;;;;;5090656;28;20040;-68
2022/11/27 04:17:57;;;;;;;15.68;6.40;;;7.40;99.90;;;;;;5088324;28;20024;-71
2022/11/27 04:20:22;;;;;;;13.35;6.25;;;7.40;99.90;;;;;;5090848;28;20060;-68
2022/11/27 04:22:48;;;;;;;18.30;6.30;;;7.40;99.90;;;;;;5091773;28;20035;-73
2022/11/27 04:25:14;;;;;;;13.32;5.82;;;7.40;99.90;;;;;;5087319;28;20043;-72
2022/11/27 04:27:39;;;;;;;19.65;6.00;;;7.50;99.90;;;;;;5091237;28;20031;-68
2022/11/27 04:30:05;;;;;;;13.35;5.35;;;7.50;99.90;;;;;;5090150;28;20016;-72
2022/11/27 04:32:31;;;;;;;13.77;5.20;;;7.50;99.90;;;;;;5090046;28;20024;-70
2022/11/27 04:34:57;;;;;;;15.52;5.55;;;7.50;99.90;;;;;;5091220;28;20028;-69
2022/11/27 04:37:22;;;;;;;17.88;5.72;;;7.50;99.90;;;;;;5087894;28;20070;-69
2022/11/27 04:39:48;;;;;;;15.40;5.18;;;7.50;99.90;;;;;;5089366;28;20043;-68
2022/11/27 04:42:13;;;;;;;13.48;5.78;;;7.40;99.90;;;;;;5087531;28;20472;-68
2022/11/27 04:44:39;;;;;;;16.23;6.25;;;7.40;99.90;;;;;;5090952;28;20024;-71
2022/11/27 04:47:04;;;;;;;15.80;5.53;;;7.50;99.90;;;;;;5087412;28;20058;-68
2022/11/27 04:49:30;;;;;;;16.67;5.57;;;7.40;99.90;;;;;;5091380;28;20020;-70
2022/11/27 04:51:56;;;;;;;13.55;5.68;;;7.40;99.90;;;;;;5091224;28;20035;-70
2022/11/27 04:54:21;;;;;;;15.23;5.60;;;7.50;99.90;;;;;;5088621;28;20032;-70
2022/11/27 04:56:47;;;;;;;18.90;6.20;;;7.50;99.90;;;;;;5091026;28;20094;-72
2022/11/27 04:59:12;;;;;;;17.17;5.50;;;7.50;99.90;;;;;;5091077;28;20046;-70
2022/11/27 05:01:38;;;;;;;15.32;5.85;;;7.30;99.90;;;;;;5086875;28;20039;-71
2022/11/27 05:04:04;;;;;;;18.73;6.38;;;7.30;99.90;;;;;;5090983;28;20020;-72
2022/11/27 05:06:29;;;;;;;18.73;6.40;;;7.20;99.90;;;;;;5086868;28;20032;-69
2022/11/27 05:09:01;;;;;;;18.40;6.70;;;7.20;99.90;;;;;;5090424;28;20023;-72
2022/11/27 05:11:29;;;;;;;14.52;5.63;;;7.30;99.90;;;;;;5086826;28;20028;-68
2022/11/27 05:16:45;;;;;;;13.48;5.90;;;7.40;99.90;;;;;;5091117;28;20510;-72
2022/11/27 05:19:11;;;;;;;13.63;5.80;;;7.40;99.90;;;;;;5090490;28;20537;-71
2022/11/27 05:21:37;;;;;;;15.15;6.25;;;7.50;99.90;;;;;;5090986;28;20354;-68
2022/11/27 05:24:03;;;;;;;15.05;6.20;;;7.40;99.90;;;;;;5090439;28;20035;-66
2022/11/27 05:26:29;;;;;;;13.70;5.32;;;7.40;99.90;;;;;;5087911;28;20035;-72
2022/11/27 05:28:55;;;;;;;15.60;5.80;;;7.40;99.90;;;;;;5093264;28;20032;-69
2022/11/27 05:31:21;;;;;;;14.32;5.22;;;7.40;99.90;;;;;;5094426;28;20068;-69
2022/11/27 05:33:46;;;;;;;17.20;5.05;;;7.40;99.90;;;;;;5093140;28;20025;-71
2022/11/27 05:36:12;;;;;;;15.15;5.10;;;7.40;99.90;;;;;;5092974;28;20429;-70
2022/11/27 05:38:39;;;;;;;13.68;5.13;;;7.40;99.90;;;;;;5088389;28;20024;-70
2022/11/27 05:41:05;;;;;;;13.50;4.78;;;7.40;99.90;;;;;;5093636;28;20145;-68
2022/11/27 05:43:30;;;;;;;13.25;5.45;;;7.40;99.90;;;;;;5091575;28;20491;-72
2022/11/27 05:45:56;;;;;;;15.85;5.30;;;7.40;99.90;;;;;;5089991;28;20391;-72
2022/11/27 05:48:21;;;;;;;13.65;5.75;;;7.40;99.90;;;;;;5092006;28;20476;-70
2022/11/27 05:50:47;;;;;;;15.70;5.25;;;7.40;99.90;;;;;;5090802;28;20036;-72
2022/11/27 05:53:13;;;;;;;15.73;5.93;;;7.50;99.90;;;;;;5093667;28;20415;-72
2022/11/27 05:55:38;;;;;;;12.75;4.82;;;7.50;99.90;;;;;;5093818;28;20034;-72
2022/11/27 05:58:04;;;;;;;15.82;5.10;;;7.50;99.90;;;;;;5084940;28;20258;-72
2022/11/27 06:00:29;;;;;;;12.88;4.90;;;7.60;99.90;;;;;;5091835;28;20399;-72
2022/11/27 06:02:55;;;;;;;12.75;4.88;;;7.50;99.90;;;;;;5094286;28;20031;-72
2022/11/27 06:05:21;;;;;;;17.27;5.35;;;7.50;99.90;;;;;;5093520;28;20559;-70
2022/11/27 06:07:46;;;;;;;11.00;4.78;;;7.50;99.90;;;;;;5093297;28;20034;-73
2022/11/27 06:10:12;;;;;;;18.38;6.18;;;7.50;99.90;;;;;;5091008;28;20111;-72
2022/11/27 06:12:38;;;;;;;16.10;5.05;;;7.60;99.90;;;;;;5092699;28;20020;-71
2022/11/27 06:15:04;;;;;;;15.93;5.47;;;7.40;99.90;;;;;;5089663;28;20499;-72
2022/11/27 06:17:30;;;;;;;17.40;5.15;;;7.50;99.90;;;;;;5093821;28;20081;-73
2022/11/27 06:19:55;;;;;;;14.15;4.57;;;7.50;99.90;;;;;;5091111;28;20048;-68
2022/11/27 06:22:21;;;;;;;15.85;5.25;;;7.50;99.90;;;;;;5092009;28;20487;-72
2022/11/27 06:24:46;;;;;;;15.40;5.15;;;7.40;99.90;;;;;;5091768;28;20043;-73
2022/11/27 06:27:12;;;;;;;16.15;5.35;;;7.40;99.90;;;;;;5091381;28;20073;-73
2022/11/27 06:29:38;;;;;;;15.52;4.90;;;7.40;99.90;;;;;;5092887;28;20032;-72
2022/11/27 06:32:04;;;;;;;13.20;4.93;;;7.50;99.90;;;;;;5089441;28;20059;-73
2022/11/27 06:34:29;;;;;;;13.48;4.82;;;7.50;99.90;;;;;;5092802;28;20023;-72
2022/11/27 06:36:55;;;;;;;11.23;4.93;;;7.50;99.90;;;;;;5089094;28;20396;-72
2022/11/27 06:39:20;;;;;;;15.40;5.30;;;7.50;99.90;;;;;;5093026;28;20476;-72
2022/11/27 06:41:46;;;;;;;10.68;4.82;;;7.50;99.90;;;;;;5091098;28;20050;-72
2022/11/27 06:44:12;;;;;;;13.50;4.90;;;7.50;99.90;;;;;;5083719;28;20016;-71
2022/11/27 06:46:38;;;;;;;11.52;5.20;;;7.60;99.90;;;;;;5093183;28;20473;-73
2022/11/27 06:49:03;;;;;;;13.35;5.00;;;7.50;99.90;;;;;;5086882;28;20028;-73
2022/11/27 06:51:30;;;;;;;15.48;5.63;;;7.60;99.90;;;;;;5092492;28;20020;-72
2022/11/27 06:53:57;;;;;;;13.68;5.00;;;7.60;99.90;;;;;;5092627;28;20049;-72
2022/11/27 06:56:25;;;;;;;12.13;5.05;;;7.60;99.90;;;;;;5088368;28;20024;-73
2022/11/27 06:58:54;;;;;;;13.88;4.50;;;7.60;99.90;;;;;;5092350;28;20032;-73
2022/11/27 07:01:22;;;;;;;13.32;4.82;;;7.50;99.90;;;;;;5083496;28;20063;-72
2022/11/27 07:03:47;;;;;;;25.95;5.55;;;7.50;99.90;;;;;;5092807;28;20091;-69
2022/11/27 07:06:16;;;;;;;18.33;4.80;;;7.40;99.90;;;;;;5088161;28;20146;-72
2022/11/27 07:08:42;;;;;;;12.68;5.38;;;7.50;99.90;;;;;;5091338;28;20107;-73
2022/11/27 07:11:14;;;;;;;20.65;6.13;;;7.50;99.90;;;;;;5088982;28;20149;-73
2022/11/27 07:13:40;;;;;;;16.38;6.18;;;7.60;99.90;;;;;;5092055;28;20023;-73
2022/11/27 07:16:08;;;;;;;14.45;5.63;;;7.60;99.90;;;;;;5089290;28;20028;-73
2022/11/27 07:18:39;;;;;;;20.88;5.90;;;7.60;99.90;;;;;;5091068;28;20043;-73
2022/11/27 07:21:05;;;;;;;12.75;5.38;;;7.60;99.90;;;;;;5091877;28;20125;-72
2022/11/27 07:23:31;;;;;;;17.15;6.45;;;7.50;99.90;;;;;;5092795;28;20050;-73
2022/11/27 07:25:57;;;;;;;20.10;6.05;;;7.50;99.90;;;;;;5087837;28;20020;-73
2022/11/27 07:28:23;;;;;;;17.58;5.80;;;7.40;99.90;;;;;;5092182;28;20501;-72
2022/11/27 07:30:55;;;;;;;14.88;6.05;;;7.40;99.90;;;;;;5088388;28;20027;-73
2022/11/27 07:33:22;;;;;;;16.20;6.15;;;7.30;99.90;;;;;;5090819;28;20389;-72
2022/11/27 07:35:47;;;;;;;17.65;6.30;;;7.40;99.90;;;;;;5087921;28;20024;-72
2022/11/27 07:38:13;;;;;;;13.43;5.95;;;7.40;99.90;;;;;;5090096;28;20028;-73
2022/11/27 07:40:38;;;;;;;18.50;6.03;;;7.30;99.90;;;;;;5090580;28;20498;-73
2022/11/27 07:43:04;;;;;;;17.67;6.60;;;7.30;99.90;;;;;;5088176;28;20163;-73
2022/11/27 07:45:29;;;;;;;22.38;7.32;;;7.30;99.90;;;;;;5092025;28;20032;-73
2022/11/27 07:47:55;;;;;;;13.25;6.43;;;7.30;99.90;;;;;;5091748;28;20036;-73
2022/11/27 07:50:21;;;;;;;21.58;7.15;;;7.30;99.90;;;;;;5091784;28;20039;-72
2022/11/27 07:52:46;;;;;;;20.13;6.82;;;7.30;99.90;;;;;;5089278;28;20475;-71
2022/11/27 07:55:12;;;;;;;16.65;7.03;;;7.30;99.90;;;;;;5088392;28;20372;-72
2022/11/27 07:57:38;;;;;;;18.45;7.57;;;7.30;99.90;;;;;;5090624;28;20054;-71
2022/11/27 08:00:05;;;;;;;21.85;7.00;;;7.40;99.90;;;;;;5087710;28;20077;-72
2022/11/27 08:02:30;;;;;;;19.65;7.30;;;7.30;99.90;;;;;;5089795;28;20024;-72
2022/11/27 08:04:56;;;;;;;20.30;7.22;;;7.30;99.90;;;;;;5091853;28;20024;-72
2022/11/27 08:07:29;;;;;;;15.07;6.65;;;7.30;99.90;;;;;;5091958;28;20023;-70
2022/11/27 08:09:57;;;;;;;16.88;6.93;;;7.40;99.90;;;;;;5089951;28;20027;-73
2022/11/27 08:12:23;;;;;;;16.15;7.05;;;7.50;99.90;;;;;;5086585;28;20486;-71
2022/11/27 08:14:49;;;;;;;16.08;7.25;;;7.50;99.90;;;;;;5090947;28;20510;-73
2022/11/27 08:17:15;;;;;;;13.90;7.53;;;7.50;99.90;;;;;;5089897;28;20024;-73
2022/11/27 08:19:40;;;;;;;18.25;7.55;;;7.50;99.90;;;;;;5090199;28;20036;-72
2022/11/27 08:22:11;;;;;;;17.23;8.57;;;7.50;99.90;;;;;;5090477;28;20046;-73
2022/11/27 08:24:37;;;;;;;19.42;9.13;;;7.60;99.90;;;;;;5091400;28;20490;-73
2022/11/27 08:27:03;;;;;;;14.57;8.30;;;7.50;99.90;;;;;;5084166;28;20027;-72
2022/11/27 08:29:28;;;;;;;18.13;8.32;;;7.60;99.90;;;;;;5089879;28;20028;-73
2022/11/27 08:31:54;;;;;;;23.58;10.05;;;7.60;99.90;;;;;;5087138;28;20699;-70
2022/11/27 08:34:20;;;;;;;19.77;9.52;;;7.60;99.90;;;;;;5091127;28;20376;-72
2022/11/27 08:36:45;;;;;;;21.98;9.77;;;7.60;99.90;;;;;;5087425;28;20476;-72
2022/11/27 08:39:11;;;;;;;21.23;9.23;;;7.70;99.90;;;;;;5086544;28;20028;-70
2022/11/27 08:41:37;;;;;;;19.38;9.43;;;7.70;99.90;;;;;;5085813;28;20396;-73
2022/11/27 08:44:02;;;;;;;24.67;10.90;;;7.80;99.90;;;;;;5079670;28;20021;-73
2022/11/27 08:46:28;;;;;;;17.38;9.32;;;7.80;99.90;;;;;;5085266;28;20055;-69
2022/11/27 08:48:54;;;;;;;26.77;10.82;;;7.80;99.90;;;;;;5097363;28;20043;-72
2022/11/27 08:51:19;;;;;;;26.02;10.75;;;7.80;99.90;;;;;;5090428;28;20472;-72
2022/11/27 08:53:45;;;;;;;20.52;10.18;;;7.80;99.90;;;;;;5090925;28;20025;-72
2022/11/27 08:56:19;;;;;;;21.80;9.82;;;7.80;99.90;;;;;;5091610;28;20075;-69
2022/11/27 08:58:46;;;;;;;22.10;10.18;;;7.90;99.90;;;;;;5090189;28;20063;-72
2022/11/27 09:01:19;;;;;;;22.98;12.02;;;7.90;99.90;;;;;;5090249;28;20054;-72
2022/11/27 09:03:45;;;;;;;26.30;12.57;;;7.90;99.90;;;;;;5093501;28;20439;-72
2022/11/27 09:06:14;;;;;;;25.20;11.45;;;8.00;99.90;;;;;;5093266;28;20020;-71
2022/11/27 09:08:41;;;;;;;23.17;11.13;;;8.00;99.90;;;;;;5091126;28;20050;-72
2022/11/27 09:11:07;;;;;;;22.45;11.70;;;8.10;99.90;;;;;;5091984;28;20099;-73
2022/11/27 09:13:36;;;;;;;22.55;10.05;;;8.00;99.90;;;;;;5090409;28;20016;-73
2022/11/27 09:16:04;;;;;;;20.98;11.10;;;8.00;99.90;;;;;;5091200;28;20038;-71
2022/11/27 09:18:30;;;;;;;21.48;10.35;;;8.00;99.90;;;;;;5093426;28;20024;-68
2022/11/27 09:21:04;;;;;;;21.52;10.05;;;8.00;99.90;;;;;;5094738;28;20151;-72
2022/11/27 09:23:30;;;;;;;21.02;9.63;;;8.10;99.90;;;;;;5088040;28;20028;-72
2022/11/27 09:26:01;;;;;;;17.60;10.18;;;8.10;99.90;;;;;;5093940;28;20039;-72
2022/11/27 09:28:27;;;;;;;19.55;11.02;;;8.10;99.90;;;;;;5093946;28;20031;-71
2022/11/27 09:30:57;;;;;;;19.42;9.73;;;8.30;99.90;;;;;;5092773;28;20028;-72
2022/11/27 09:33:24;;;;;;;24.27;10.48;;;8.20;99.90;;;;;;5087379;28;20073;-73
2022/11/27 09:35:50;;;;;;;22.52;11.18;;;8.30;99.90;;;;;;5094649;28;20057;-73
2022/11/27 09:38:16;;;;;;;21.88;9.95;;;8.30;99.90;;;;;;5094232;28;20036;-73
2022/11/27 09:40:58;;;;;;;23.90;10.63;;;8.30;99.90;;;;;;5093225;28;20557;-73
2022/11/27 09:43:33;;;;;;;22.45;10.50;;;8.30;99.90;;;;;;5092064;28;20426;-70
2022/11/27 09:46:07;;;;;;;22.33;10.88;;;8.50;99.90;;;;;;5091563;28;20027;-72
2022/11/27 09:48:38;;;;;;;22.63;11.35;;;8.50;99.90;;;;;;5091712;28;20038;-70
2022/11/27 09:51:10;;;;;;;26.13;10.98;;;8.50;99.90;;;;;;5047935;28;20107;-73
2022/11/27 09:53:47;;;;;;;;;;;8.40;99.90;;;;;;5085528;28;20032;-72
2022/11/27 09:56:16;;;;;;;20.95;9.98;;;8.40;99.90;;;;;;5086314;28;19970;-73
2022/11/27 09:58:58;;;;;;;23.27;11.45;;;8.50;99.90;;;;;;5082549;28;20111;-70
2022/11/27 10:01:27;;;;;;;17.60;9.50;;;8.50;99.90;;;;;;5069482;28;20122;-73
2022/11/27 10:03:54;;;;;;;23.25;10.75;;;8.40;99.90;;;;;;5083371;28;20008;-71
2022/11/27 10:07:00;;;;;;;23.77;11.10;;;8.60;99.90;;;;;;5085701;28;20028;-72
2022/11/27 10:09:37;;;;;;;24.10;11.73;;;8.50;99.90;;;;;;5037985;28;20071;-66
2022/11/27 10:12:40;;;;;;;26.73;11.57;;;8.50;99.90;;;;;;5082669;28;20470;-69
2022/11/27 10:15:16;;;;;;;29.95;12.27;;;8.50;99.90;;;;;;5100306;28;20078;-68
2022/11/27 10:17:58;;;;;;;25.42;12.18;;;8.60;99.90;;;;;;5082856;28;20094;-69
2022/11/27 10:20:45;;;;;;;23.05;12.45;;;8.70;99.90;;;;;;5082441;28;20450;-67
2022/11/27 10:23:32;;;;;;;28.08;12.82;;;8.60;99.90;;;;;;5081729;28;20027;-68
2022/11/27 10:26:03;;;;;;;31.15;13.18;;;8.70;99.90;;;;;;5087495;28;20038;-67
2022/11/27 10:28:45;;;;;;;25.38;12.88;;;8.80;99.90;;;;;;5085297;28;20059;-67
2022/11/27 10:31:37;;;;;;;25.43;12.53;;;8.80;99.90;;;;;;5085808;28;20028;-68
2022/11/27 10:34:18;;;;;;;26.55;12.40;;;8.80;99.90;;;;;;5100790;28;20282;-69
2022/11/27 10:36:47;;;;;;;28.73;13.18;;;8.80;99.90;;;;;;5083592;28;20024;-69
2022/11/27 10:39:34;;;;;;;26.83;13.27;;;8.80;99.90;;;;;;5084930;28;20013;-68
2022/11/27 10:42:09;;;;;;;25.10;12.98;;;8.80;99.90;;;;;;5083026;28;20165;-68
2022/11/27 10:44:43;;;;;;;23.75;12.68;;;8.90;99.90;;;;;;5083288;28;20048;-69
2022/11/27 10:47:11;;;;;;;25.35;12.57;;;8.90;99.90;;;;;;5083990;28;20070;-71
2022/11/27 10:49:40;;;;;;;26.83;13.57;;;8.90;99.90;;;;;;5081268;28;20656;-68
2022/11/27 10:52:14;;;;;;;27.92;14.77;;;9.00;99.90;;;;;;5085346;28;20028;-68
2022/11/27 10:54:41;;;;;;;28.00;14.98;;;9.00;99.90;;;;;;5080875;28;20024;-69
2022/11/27 10:57:36;;;;;;;28.98;13.88;;;9.10;99.90;;;;;;5084382;28;20023;-69
2022/11/27 11:00:20;;;;;;;25.45;13.85;;;9.20;99.90;;;;;;5083079;28;20040;-69
2022/11/27 11:02:45;;;;;;;25.58;13.27;;;9.10;99.90;;;;;;5084346;28;20028;-69
2022/11/27 11:05:17;;;;;;;23.55;13.35;;;9.10;99.90;;;;;;5083450;28;20031;-69
2022/11/27 11:07:59;;;;;;;20.38;11.68;;;9.20;99.90;;;;;;5083623;28;20380;-70
2022/11/27 11:10:48;;;;;;;28.67;12.82;;;9.20;99.90;;;;;;5078023;28;20148;-68
2022/11/27 11:13:29;;;;;;;18.98;11.20;;;9.20;99.90;;;;;;5083309;28;20031;-68
2022/11/27 11:16:16;;;;;;;26.35;12.00;;;9.20;99.90;;;;;;5083502;28;20047;-70
2022/11/27 11:18:45;;;;;;;20.00;11.23;;;9.20;99.90;;;;;;5078143;28;20540;-68
2022/11/27 11:21:33;;;;;;;20.95;10.65;;;9.20;99.90;;;;;;5083558;28;20388;-69
2022/11/27 11:24:14;;;;;;;20.00;10.55;;;9.20;99.90;;;;;;5083330;28;20032;-68
2022/11/27 11:26:46;;;;;;;22.67;12.82;;;9.30;99.90;;;;;;5083087;28;20077;-69
2022/11/27 11:29:44;;;;;;;21.10;11.57;;;9.30;99.90;;;;;;5079862;28;20467;-68
2022/11/27 11:32:12;;;;;;;19.02;10.82;;;9.30;99.90;;;;;;5083430;28;20036;-68
2022/11/27 11:34:47;;;;;;;26.98;15.07;;;9.30;99.90;;;;;;5079471;28;20035;-73
2022/11/27 11:37:28;;;;;;;20.15;13.18;;;9.40;99.90;;;;;;5083903;28;20522;-70
2022/11/27 11:39:57;;;;;;;16.98;11.55;;;9.40;99.90;;;;;;5080638;28;20185;-67
2022/11/27 11:42:28;;;;;;;21.83;11.35;;;9.40;99.90;;;;;;5080951;28;20035;-67
2022/11/27 11:45:03;;;;;;;18.08;10.85;;;9.30;99.90;;;;;;5082710;28;20487;-69
2022/11/27 11:47:29;;;;;;;23.08;11.95;;;9.30;99.90;;;;;;5081183;28;20376;-70
2022/11/27 11:49:56;;;;;;;25.83;13.18;;;9.40;99.90;;;;;;5083400;28;20103;-67
2022/11/27 11:52:36;;;;;;;35.80;13.65;;;9.50;99.90;;;;;;5081611;28;20102;-68
2022/11/27 11:55:26;;;;;;;30.05;13.45;;;9.50;99.90;;;;;;5074827;28;20431;-70
2022/11/27 11:58:21;;;;;;;23.75;12.85;;;9.40;99.90;;;;;;5078550;28;20021;-72
2022/11/27 12:00:49;;;;;;;24.38;13.77;;;9.50;99.90;;;;;;4992684;28;20162;-68
2022/11/27 12:03:28;;;;;;;22.33;12.50;;;9.50;99.90;;;;;;5079855;28;20088;-69
2022/11/27 12:06:13;;;;;;;27.77;14.15;;;9.50;99.90;;;;;;5079934;28;20055;-68
2022/11/27 12:09:04;;;;;;;26.15;14.73;;;9.60;99.90;;;;;;5077591;28;20095;-68
2022/11/27 12:11:42;;;;;;;23.33;14.25;;;9.60;99.90;;;;;;5072855;28;20032;-67
2022/11/27 12:14:32;;;;;;;24.92;15.23;;;9.60;99.90;;;;;;5075761;28;20343;-67
2022/11/27 12:17:43;;;;;;;24.35;13.70;;;9.60;99.90;;;;;;5078129;28;20478;-69
2022/11/27 12:20:17;;;;;;;23.48;13.52;;;9.70;99.90;;;;;;5080190;28;20028;-69
2022/11/27 12:22:45;;;;;;;26.45;13.38;;;9.60;99.90;;;;;;5081763;28;20024;-69
2022/11/27 12:25:33;;;;;;;30.83;14.27;;;9.60;99.90;;;;;;5077726;28;20512;-67
2022/11/27 12:28:29;;;;;;;28.65;15.57;;;9.60;99.90;;;;;;5082354;28;20488;-68
2022/11/27 12:31:04;;;;;;;24.10;14.02;;;9.60;99.90;;;;;;5073372;28;20676;-68
2022/11/27 12:33:59;;;;;;;23.98;12.68;;;9.70;99.90;;;;;;5083346;28;20403;-66
2022/11/27 12:36:52;;;;;;;21.35;13.45;;;9.60;99.90;;;;;;5077526;28;20034;-67
2022/11/27 12:39:42;;;;;;;25.25;13.30;;;9.70;99.90;;;;;;5082498;28;20042;-69
2022/11/27 12:42:13;;;;;;;20.45;11.95;;;9.70;99.90;;;;;;5101786;28;20027;-68
2022/11/27 12:44:54;;;;;;;23.10;12.68;;;9.60;99.90;;;;;;5081724;28;20074;-67
2022/11/27 12:47:43;;;;;;;24.55;13.13;;;9.60;99.90;;;;;;5083996;28;20038;-69
2022/11/27 12:50:22;;;;;;;28.40;14.77;;;9.60;99.90;;;;;;5082637;28;20162;-68
2022/11/27 12:52:59;;;;;;;25.45;13.82;;;9.60;99.90;;;;;;5087383;28;20019;-70
2022/11/27 12:55:29;;;;;;;26.98;14.18;;;9.70;99.90;;;;;;5084450;28;20032;-68
2022/11/27 12:58:00;;;;;;;27.50;13.52;;;9.60;99.90;;;;;;5086770;28;20027;-69
2022/11/27 13:00:29;;;;;;;27.85;14.52;;;9.70;99.90;;;;;;5082202;28;20047;-68
2022/11/27 13:03:10;;;;;;;24.13;14.82;;;9.70;99.90;;;;;;5084619;28;20065;-67
2022/11/27 13:05:57;;;;;;;26.52;14.45;;;9.60;99.90;;;;;;5086683;28;20024;-68
2022/11/27 13:08:53;;;;;;;23.83;13.48;;;9.70;99.90;;;;;;5085163;28;20036;-68